createdAt,value
2016-12-09T00:00:17.257Z,23.97
2016-12-09T00:01:17.577Z,23.94
2016-12-09T00:02:16.954Z,24.05
2016-12-09T00:03:17.327Z,23.98
2016-12-09T00:04:17.594Z,23.97
2016-12-09T00:05:18.776Z,24
2016-12-09T00:06:17.609Z,23.95
2016-12-09T00:07:17.615Z,23.91
2016-12-09T00:08:16.995Z,23.91
2016-12-09T00:09:17.416Z,23.95
2016-12-09T00:10:17.009Z,23.95
2016-12-09T00:11:17.342Z,24
2016-12-09T00:12:17.336Z,24.03
2016-12-09T00:13:17.341Z,23.91
2016-12-09T00:14:17.665Z,23.95
2016-12-09T00:15:17.666Z,23.93
2016-12-09T00:16:18.273Z,23.94
2016-12-09T00:17:17.417Z,23.93
2016-12-09T00:18:17.735Z,24.02
2016-12-09T00:19:17.066Z,23.98
2016-12-09T00:20:17.704Z,23.93
2016-12-09T00:21:17.390Z,23.95
2016-12-09T00:22:17.764Z,23.93
2016-12-09T00:23:17.718Z,23.9
2016-12-09T00:24:17.411Z,23.93
2016-12-09T00:25:17.414Z,23.98
2016-12-09T00:26:17.735Z,23.94
2016-12-09T00:27:17.784Z,23.91
2016-12-09T00:28:17.750Z,23.87
2016-12-09T00:29:17.480Z,23.88
2016-12-09T00:30:17.453Z,23.84
2016-12-09T00:31:17.766Z,23.91
2016-12-09T00:32:17.522Z,23.85
2016-12-09T00:33:17.833Z,23.84
2016-12-09T00:34:17.212Z,23.9
2016-12-09T00:35:17.480Z,23.9
2016-12-09T00:36:17.486Z,23.91
2016-12-09T00:37:17.857Z,23.84
2016-12-09T00:38:18.048Z,23.83
2016-12-09T00:39:17.868Z,23.91
2016-12-09T00:40:17.513Z,23.85
2016-12-09T00:41:17.521Z,23.88
2016-12-09T00:42:19.189Z,23.91
2016-12-09T00:43:17.946Z,23.85
2016-12-09T00:44:17.538Z,23.88
2016-12-09T00:45:17.594Z,23.87
2016-12-09T00:46:17.237Z,23.88
2016-12-09T00:47:17.292Z,23.78
2016-12-09T00:48:17.563Z,23.78
2016-12-09T00:49:17.671Z,23.8
2016-12-09T00:50:17.269Z,23.84
2016-12-09T00:51:17.898Z,23.8
2016-12-09T00:52:17.589Z,23.83
2016-12-09T00:53:17.596Z,23.78
2016-12-09T00:54:17.289Z,23.8
2016-12-09T00:55:17.613Z,23.88
2016-12-09T00:56:17.618Z,23.83
2016-12-09T00:57:17.676Z,23.76
2016-12-09T00:58:17.682Z,23.84
2016-12-09T00:59:17.631Z,23.9
2016-12-09T01:00:17.953Z,23.83
2016-12-09T01:01:18.109Z,23.85
2016-12-09T01:02:17.652Z,23.83
2016-12-09T01:03:17.662Z,23.83
2016-12-09T01:04:18.766Z,23.73
2016-12-09T01:05:17.780Z,23.73
2016-12-09T01:06:17.684Z,23.78
2016-12-09T01:07:17.782Z,23.84
2016-12-09T01:08:18.002Z,23.73
2016-12-09T01:09:17.846Z,23.83
2016-12-09T01:10:17.701Z,23.83
2016-12-09T01:11:17.713Z,23.76
2016-12-09T01:12:18.030Z,23.76
2016-12-09T01:13:18.932Z,23.8
2016-12-09T01:14:17.468Z,23.73
2016-12-09T01:15:18.639Z,23.69
2016-12-09T01:16:17.430Z,23.8
2016-12-09T01:17:17.799Z,23.83
2016-12-09T01:18:17.859Z,23.79
2016-12-09T01:19:17.503Z,23.7
2016-12-09T01:20:18.082Z,23.73
2016-12-09T01:21:18.124Z,23.7
2016-12-09T01:22:18.145Z,23.75
2016-12-09T01:23:17.787Z,23.73
2016-12-09T01:24:17.791Z,23.72
2016-12-09T01:25:17.802Z,23.68
2016-12-09T01:26:17.492Z,23.75
2016-12-09T01:27:18.125Z,23.66
2016-12-09T01:28:17.512Z,23.68
2016-12-09T01:29:18.137Z,23.76
2016-12-09T01:30:18.200Z,23.69
2016-12-09T01:31:17.887Z,23.69
2016-12-09T01:32:17.631Z,23.76
2016-12-09T01:33:17.591Z,23.61
2016-12-09T01:34:17.595Z,23.72
2016-12-09T01:35:17.868Z,23.68
2016-12-09T01:36:17.921Z,23.69
2016-12-09T01:37:18.735Z,23.7
2016-12-09T01:38:17.931Z,23.7
2016-12-09T01:39:18.254Z,23.69
2016-12-09T01:40:17.894Z,23.65
2016-12-09T01:41:17.901Z,23.75
2016-12-09T01:42:17.907Z,23.69
2016-12-09T01:43:17.915Z,23.72
2016-12-09T01:44:17.921Z,23.66
2016-12-09T01:45:17.976Z,23.69
2016-12-09T01:46:18.857Z,23.73
2016-12-09T01:47:17.945Z,23.76
2016-12-09T01:48:18.485Z,23.73
2016-12-09T01:49:17.951Z,23.69
2016-12-09T01:50:18.298Z,23.68
2016-12-09T01:51:18.346Z,23.65
2016-12-09T01:52:18.285Z,23.78
2016-12-09T01:53:17.974Z,23.73
2016-12-09T01:54:17.985Z,23.7
2016-12-09T01:55:17.991Z,23.69
2016-12-09T01:56:17.684Z,23.78
2016-12-09T01:57:18.866Z,23.73
2016-12-09T01:58:18.061Z,23.68
2016-12-09T01:59:18.568Z,23.6
2016-12-09T02:00:18.385Z,23.63
2016-12-09T02:01:18.030Z,23.58
2016-12-09T02:02:17.722Z,23.66
2016-12-09T02:03:18.384Z,23.57
2016-12-09T02:04:18.413Z,23.54
2016-12-09T02:05:18.364Z,23.63
2016-12-09T02:06:17.798Z,23.66
2016-12-09T02:07:18.068Z,23.68
2016-12-09T02:08:18.915Z,23.65
2016-12-09T02:09:18.393Z,23.7
2016-12-09T02:10:18.485Z,23.54
2016-12-09T02:11:18.407Z,23.7
2016-12-09T02:12:18.458Z,23.65
2016-12-09T02:13:18.103Z,23.7
2016-12-09T02:14:18.118Z,23.55
2016-12-09T02:15:17.907Z,23.55
2016-12-09T02:16:18.438Z,23.65
2016-12-09T02:17:19.328Z,23.55
2016-12-09T02:18:18.138Z,23.6
2016-12-09T02:19:19.094Z,23.76
2016-12-09T02:20:18.560Z,23.61
2016-12-09T02:21:18.470Z,23.66
2016-12-09T02:22:18.162Z,23.54
2016-12-09T02:23:17.908Z,23.58
2016-12-09T02:24:17.912Z,23.65
2016-12-09T02:25:17.870Z,23.55
2016-12-09T02:26:18.236Z,23.63
2016-12-09T02:27:18.197Z,23.57
2016-12-09T02:28:18.934Z,23.68
2016-12-09T02:29:18.523Z,23.54
2016-12-09T02:30:18.765Z,23.65
2016-12-09T02:31:18.515Z,23.63
2016-12-09T02:32:18.059Z,23.63
2016-12-09T02:33:18.233Z,23.69
2016-12-09T02:34:18.289Z,23.63
2016-12-09T02:35:18.555Z,23.63
2016-12-09T02:36:18.611Z,23.57
2016-12-09T02:37:18.257Z,23.65
2016-12-09T02:38:18.579Z,23.58
2016-12-09T02:39:18.659Z,23.68
2016-12-09T02:40:18.330Z,23.66
2016-12-09T02:41:18.630Z,23.58
2016-12-09T02:42:18.291Z,23.69
2016-12-09T02:43:18.610Z,23.63
2016-12-09T02:44:18.610Z,23.66
2016-12-09T02:45:18.308Z,23.57
2016-12-09T02:46:17.998Z,23.61
2016-12-09T02:47:18.374Z,23.55
2016-12-09T02:48:18.636Z,23.6
2016-12-09T02:49:18.641Z,23.55
2016-12-09T02:50:19.099Z,23.58
2016-12-09T02:51:18.034Z,23.57
2016-12-09T02:52:18.408Z,23.58
2016-12-09T02:53:18.051Z,23.55
2016-12-09T02:54:18.362Z,23.6
2016-12-09T02:55:18.398Z,23.6
2016-12-09T02:56:18.699Z,23.6
2016-12-09T02:57:18.379Z,23.55
2016-12-09T02:58:18.439Z,23.55
2016-12-09T02:59:18.394Z,23.58
2016-12-09T03:00:18.139Z,23.6
2016-12-09T03:01:18.759Z,23.55
2016-12-09T03:02:18.776Z,23.55
2016-12-09T03:03:18.779Z,23.54
2016-12-09T03:04:18.427Z,23.63
2016-12-09T03:05:19.659Z,23.58
2016-12-09T03:06:18.438Z,23.53
2016-12-09T03:07:18.505Z,23.58
2016-12-09T03:08:18.451Z,23.6
2016-12-09T03:09:18.454Z,23.58
2016-12-09T03:10:18.201Z,23.6
2016-12-09T03:11:18.835Z,23.58
2016-12-09T03:12:18.268Z,23.55
2016-12-09T03:13:18.799Z,23.54
2016-12-09T03:14:18.593Z,23.48
2016-12-09T03:15:18.237Z,23.53
2016-12-09T03:16:18.197Z,23.55
2016-12-09T03:17:18.243Z,23.55
2016-12-09T03:18:18.830Z,23.54
2016-12-09T03:19:18.208Z,23.53
2016-12-09T03:20:18.576Z,23.54
2016-12-09T03:21:18.533Z,23.55
2016-12-09T03:22:18.543Z,23.54
2016-12-09T03:23:18.959Z,23.47
2016-12-09T03:24:18.241Z,23.58
2016-12-09T03:25:18.563Z,23.51
2016-12-09T03:26:18.617Z,23.53
2016-12-09T03:27:20.082Z,23.57
2016-12-09T03:28:18.629Z,23.6
2016-12-09T03:29:18.900Z,23.53
2016-12-09T03:30:18.953Z,23.55
2016-12-09T03:31:18.650Z,23.53
2016-12-09T03:32:18.928Z,23.48
2016-12-09T03:33:18.925Z,23.51
2016-12-09T03:34:19.178Z,23.53
2016-12-09T03:35:18.621Z,23.57
2016-12-09T03:36:19.042Z,23.58
2016-12-09T03:37:18.635Z,23.47
2016-12-09T03:38:18.652Z,23.55
2016-12-09T03:39:18.335Z,23.53
2016-12-09T03:40:18.655Z,23.55
2016-12-09T03:41:18.658Z,23.54
2016-12-09T03:42:18.766Z,23.5
2016-12-09T03:43:18.670Z,23.48
2016-12-09T03:44:18.680Z,23.53
2016-12-09T03:45:18.833Z,23.46
2016-12-09T03:46:19.012Z,23.51
2016-12-09T03:47:19.009Z,23.53
2016-12-09T03:48:18.754Z,23.47
2016-12-09T03:49:18.395Z,23.54
2016-12-09T03:50:18.720Z,23.54
2016-12-09T03:51:18.723Z,23.46
2016-12-09T03:52:19.103Z,23.48
2016-12-09T03:53:19.060Z,23.48
2016-12-09T03:54:19.053Z,23.48
2016-12-09T03:55:18.744Z,23.51
2016-12-09T03:56:19.168Z,23.51
2016-12-09T03:57:18.501Z,23.54
2016-12-09T03:58:18.814Z,23.47
2016-12-09T03:59:19.084Z,23.47
2016-12-09T04:00:18.513Z,23.5
2016-12-09T04:01:18.783Z,23.42
2016-12-09T04:02:19.100Z,23.38
2016-12-09T04:03:18.843Z,23.43
2016-12-09T04:04:19.114Z,23.5
2016-12-09T04:05:18.805Z,23.39
2016-12-09T04:06:18.949Z,23.39
2016-12-09T04:07:18.507Z,23.47
2016-12-09T04:08:18.827Z,23.39
2016-12-09T04:09:18.568Z,23.35
2016-12-09T04:10:18.523Z,23.42
2016-12-09T04:11:19.995Z,23.46
2016-12-09T04:12:18.848Z,23.4
2016-12-09T04:13:18.856Z,23.35
2016-12-09T04:14:18.545Z,23.31
2016-12-09T04:15:18.865Z,23.35
2016-12-09T04:16:18.923Z,23.35
2016-12-09T04:17:18.937Z,23.36
2016-12-09T04:18:18.984Z,23.32
2016-12-09T04:19:18.943Z,23.39
2016-12-09T04:20:18.964Z,23.33
2016-12-09T04:21:18.593Z,23.38
2016-12-09T04:22:19.785Z,23.35
2016-12-09T04:23:18.968Z,23.36
2016-12-09T04:24:18.923Z,23.33
2016-12-09T04:25:18.615Z,23.33
2016-12-09T04:26:18.936Z,23.28
2016-12-09T04:27:19.004Z,23.35
2016-12-09T04:28:18.947Z,23.32
2016-12-09T04:29:19.265Z,23.32
2016-12-09T04:30:18.698Z,23.33
2016-12-09T04:31:18.653Z,23.31
2016-12-09T04:32:18.657Z,23.33
2016-12-09T04:33:18.665Z,23.32
2016-12-09T04:34:18.672Z,23.35
2016-12-09T04:35:19.041Z,23.33
2016-12-09T04:36:18.997Z,23.38
2016-12-09T04:37:19.315Z,23.33
2016-12-09T04:38:19.058Z,23.32
2016-12-09T04:39:19.020Z,23.27
2016-12-09T04:40:19.384Z,23.31
2016-12-09T04:41:19.052Z,23.35
2016-12-09T04:42:19.035Z,23.28
2016-12-09T04:43:18.777Z,23.25
2016-12-09T04:44:20.028Z,23.35
2016-12-09T04:45:19.368Z,23.32
2016-12-09T04:46:19.108Z,23.28
2016-12-09T04:47:19.428Z,23.27
2016-12-09T04:48:19.069Z,23.25
2016-12-09T04:49:19.129Z,23.33
2016-12-09T04:50:19.138Z,23.19
2016-12-09T04:51:19.194Z,23.33
2016-12-09T04:52:18.799Z,23.33
2016-12-09T04:53:19.117Z,23.35
2016-12-09T04:54:18.795Z,23.35
2016-12-09T04:55:19.957Z,23.32
2016-12-09T04:56:19.126Z,23.33
2016-12-09T04:57:18.867Z,23.35
2016-12-09T04:58:34.750Z,23.28
2016-12-09T04:59:19.140Z,23.31
2016-12-09T05:00:19.146Z,23.33
2016-12-09T05:01:19.153Z,23.36
2016-12-09T05:02:19.360Z,23.27
2016-12-09T05:03:19.528Z,23.27
2016-12-09T05:04:18.908Z,23.28
2016-12-09T05:05:19.199Z,23.28
2016-12-09T05:06:18.870Z,23.27
2016-12-09T05:07:19.507Z,23.36
2016-12-09T05:08:19.200Z,23.25
2016-12-09T05:09:19.515Z,23.33
2016-12-09T05:10:19.522Z,23.35
2016-12-09T05:11:18.951Z,23.32
2016-12-09T05:12:19.531Z,23.36
2016-12-09T05:13:19.792Z,23.36
2016-12-09T05:14:19.331Z,23.33
2016-12-09T05:15:19.236Z,23.36
2016-12-09T05:16:19.557Z,23.35
2016-12-09T05:17:19.298Z,23.28
2016-12-09T05:18:19.256Z,23.27
2016-12-09T05:19:19.267Z,23.31
2016-12-09T05:20:19.321Z,23.31
2016-12-09T05:21:19.327Z,23.32
2016-12-09T05:22:19.332Z,23.36
2016-12-09T05:23:19.601Z,23.31
2016-12-09T05:24:20.009Z,23.35
2016-12-09T05:25:19.035Z,23.32
2016-12-09T05:26:19.621Z,23.35
2016-12-09T05:27:19.310Z,23.35
2016-12-09T05:28:19.317Z,23.27
2016-12-09T05:29:19.938Z,23.36
2016-12-09T05:30:19.332Z,23.32
2016-12-09T05:31:19.029Z,23.32
2016-12-09T05:32:19.954Z,23.33
2016-12-09T05:33:19.718Z,23.32
2016-12-09T05:34:19.096Z,23.27
2016-12-09T05:35:20.278Z,23.31
2016-12-09T05:36:19.420Z,23.33
2016-12-09T05:37:19.376Z,23.28
2016-12-09T05:38:19.746Z,23.32
2016-12-09T05:39:19.803Z,23.36
2016-12-09T05:40:19.709Z,23.32
2016-12-09T05:41:20.061Z,23.36
2016-12-09T05:42:19.093Z,23.27
2016-12-09T05:43:19.415Z,23.32
2016-12-09T05:44:19.108Z,23.35
2016-12-09T05:45:19.889Z,23.35
2016-12-09T05:46:20.080Z,23.27
2016-12-09T05:47:19.435Z,23.31
2016-12-09T05:48:19.755Z,23.28
2016-12-09T05:49:19.451Z,23.35
2016-12-09T05:50:19.144Z,23.31
2016-12-09T05:51:19.155Z,23.27
2016-12-09T05:52:19.472Z,23.32
2016-12-09T05:53:19.163Z,23.33
2016-12-09T05:54:19.483Z,23.2
2016-12-09T05:55:19.852Z,23.22
2016-12-09T05:56:19.808Z,23.28
2016-12-09T05:57:20.201Z,23.31
2016-12-09T05:58:19.868Z,23.27
2016-12-09T05:59:19.861Z,23.35
2016-12-09T06:00:19.883Z,23.31
2016-12-09T06:01:19.528Z,23.35
2016-12-09T06:02:19.584Z,23.27
2016-12-09T06:03:19.538Z,23.25
2016-12-09T06:04:19.854Z,23.38
2016-12-09T06:05:19.240Z,23.35
2016-12-09T06:06:19.555Z,23.31
2016-12-09T06:07:19.567Z,23.33
2016-12-09T06:08:20.782Z,23.31
2016-12-09T06:09:19.892Z,23.33
2016-12-09T06:10:20.092Z,23.36
2016-12-09T06:11:19.596Z,23.25
2016-12-09T06:12:19.379Z,23.28
2016-12-09T06:13:19.652Z,23.23
2016-12-09T06:14:19.655Z,23.19
2016-12-09T06:15:19.610Z,23.19
2016-12-09T06:16:19.618Z,23.27
2016-12-09T06:17:19.939Z,23.15
2016-12-09T06:18:19.319Z,23.28
2016-12-09T06:19:20.123Z,23.27
2016-12-09T06:20:19.956Z,23.22
2016-12-09T06:21:19.784Z,23.31
2016-12-09T06:22:20.319Z,23.23
2016-12-09T06:23:20.026Z,23.22
2016-12-09T06:24:19.671Z,23.15
2016-12-09T06:25:19.677Z,23.23
2016-12-09T06:26:19.994Z,23.22
2016-12-09T06:27:19.375Z,23.2
2016-12-09T06:28:19.689Z,23.25
2016-12-09T06:29:20.112Z,23.16
2016-12-09T06:30:20.876Z,23.19
2016-12-09T06:31:20.072Z,23.19
2016-12-09T06:32:19.870Z,23.19
2016-12-09T06:33:19.723Z,23.16
2016-12-09T06:34:20.051Z,23.19
2016-12-09T06:35:19.737Z,23.13
2016-12-09T06:36:20.106Z,23.23
2016-12-09T06:37:19.747Z,23.25
2016-12-09T06:38:19.756Z,23.17
2016-12-09T06:39:19.810Z,23.16
2016-12-09T06:40:20.132Z,23.22
2016-12-09T06:41:20.676Z,23.16
2016-12-09T06:42:19.780Z,23.15
2016-12-09T06:43:19.924Z,23.2
2016-12-09T06:44:19.849Z,23.13
2016-12-09T06:45:19.535Z,23.19
2016-12-09T06:46:19.506Z,23.19
2016-12-09T06:47:20.122Z,23.17
2016-12-09T06:48:20.184Z,23.17
2016-12-09T06:49:19.825Z,23.15
2016-12-09T06:50:20.141Z,23.2
2016-12-09T06:51:19.839Z,23.17
2016-12-09T06:52:20.281Z,23.22
2016-12-09T06:53:19.849Z,23.2
2016-12-09T06:54:19.942Z,23.1
2016-12-09T06:55:19.909Z,23.19
2016-12-09T06:56:19.919Z,23.25
2016-12-09T06:57:20.181Z,23.23
2016-12-09T06:58:20.187Z,23.15
2016-12-09T06:59:20.197Z,23.12
2016-12-09T07:00:19.576Z,23.19
2016-12-09T07:01:19.950Z,23.16
2016-12-09T07:02:20.209Z,23.2
2016-12-09T07:03:20.759Z,23.16
2016-12-09T07:04:19.914Z,23.17
2016-12-09T07:05:20.020Z,23.27
2016-12-09T07:06:19.665Z,23.2
2016-12-09T07:07:19.672Z,23.28
2016-12-09T07:08:19.990Z,23.16
2016-12-09T07:09:20.307Z,23.1
2016-12-09T07:10:20.914Z,23.22
2016-12-09T07:11:20.009Z,23.16
2016-12-09T07:12:20.377Z,23.16
2016-12-09T07:13:19.967Z,23.19
2016-12-09T07:14:20.365Z,23.27
2016-12-09T07:15:19.985Z,23.12
2016-12-09T07:16:20.349Z,23.25
2016-12-09T07:17:19.992Z,23.2
2016-12-09T07:18:20.314Z,23.19
2016-12-09T07:19:20.321Z,23.19
2016-12-09T07:20:20.014Z,23.25
2016-12-09T07:21:20.330Z,23.23
2016-12-09T07:22:20.359Z,23.16
2016-12-09T07:23:19.771Z,23.17
2016-12-09T07:24:20.087Z,23.2
2016-12-09T07:25:20.329Z,23.23
2016-12-09T07:26:20.058Z,23.33
2016-12-09T07:27:20.103Z,23.22
2016-12-09T07:28:20.115Z,23.25
2016-12-09T07:29:19.752Z,23.17
2016-12-09T07:30:20.175Z,23.23
2016-12-09T07:31:20.076Z,23.31
2016-12-09T07:32:20.084Z,23.39
2016-12-09T07:33:19.829Z,23.48
2016-12-09T07:34:20.459Z,23.68
2016-12-09T07:35:20.129Z,23.61
2016-12-09T07:36:21.224Z,23.73
2016-12-09T07:37:20.162Z,23.83
2016-12-09T07:38:20.105Z,23.94
2016-12-09T07:39:20.126Z,24.12
2016-12-09T07:40:20.132Z,24.21
2016-12-09T07:41:20.170Z,24.21
2016-12-09T07:42:20.144Z,24.39
2016-12-09T07:43:20.462Z,24.45
2016-12-09T07:44:20.471Z,24.53
2016-12-09T07:45:20.164Z,24.65
2016-12-09T07:46:20.216Z,24.78
2016-12-09T07:47:20.878Z,24.8
2016-12-09T07:48:20.184Z,24.87
2016-12-09T07:49:20.608Z,24.99
2016-12-09T07:50:20.192Z,24.96
2016-12-09T07:51:19.884Z,25.05
2016-12-09T07:52:20.205Z,24.99
2016-12-09T07:53:20.522Z,25.09
2016-12-09T07:54:20.266Z,25.15
2016-12-09T07:55:19.959Z,25.17
2016-12-09T07:56:20.592Z,25.35
2016-12-09T07:57:19.926Z,25.36
2016-12-09T07:58:21.091Z,25.38
2016-12-09T07:59:20.302Z,25.33
2016-12-09T08:00:20.666Z,25.38
2016-12-09T08:01:20.258Z,25.45
2016-12-09T08:02:20.578Z,25.45
2016-12-09T08:03:19.958Z,25.42
2016-12-09T08:04:20.639Z,25.36
2016-12-09T08:05:20.281Z,25.35
2016-12-09T08:06:20.029Z,25.38
2016-12-09T08:07:20.661Z,25.45
2016-12-09T08:08:20.350Z,25.5
2016-12-09T08:09:21.745Z,25.45
2016-12-09T08:10:20.313Z,25.45
2016-12-09T08:11:21.184Z,25.42
2016-12-09T08:12:20.016Z,25.46
2016-12-09T08:13:20.649Z,25.51
2016-12-09T08:14:20.106Z,25.64
2016-12-09T08:15:20.031Z,25.69
2016-12-09T08:16:20.716Z,25.67
2016-12-09T08:17:20.662Z,25.6
2016-12-09T08:18:20.418Z,25.57
2016-12-09T08:19:20.059Z,25.54
2016-12-09T08:20:20.430Z,25.52
2016-12-09T08:21:20.437Z,25.54
2016-12-09T08:22:21.456Z,25.51
2016-12-09T08:23:20.713Z,25.52
2016-12-09T08:24:20.770Z,25.43
2016-12-09T08:25:20.725Z,25.55
2016-12-09T08:26:20.416Z,25.42
2016-12-09T08:27:20.436Z,25.43
2016-12-09T08:28:20.429Z,25.52
2016-12-09T08:29:20.436Z,25.52
2016-12-09T08:30:20.806Z,25.55
2016-12-09T08:31:22.419Z,25.5
2016-12-09T08:32:20.151Z,25.57
2016-12-09T08:33:21.331Z,25.52
2016-12-09T08:34:20.520Z,25.54
2016-12-09T08:35:21.089Z,25.5
2016-12-09T08:36:20.480Z,25.73
2016-12-09T08:37:20.854Z,25.77
2016-12-09T08:38:20.179Z,25.69
2016-12-09T08:39:20.237Z,25.64
2016-12-09T08:40:20.505Z,25.72
2016-12-09T08:41:20.520Z,25.57
2016-12-09T08:42:20.207Z,25.55
2016-12-09T08:43:20.215Z,25.6
2016-12-09T08:44:20.221Z,25.6
2016-12-09T08:45:20.852Z,25.54
2016-12-09T08:46:21.396Z,25.6
2016-12-09T08:47:20.552Z,25.67
2016-12-09T08:48:20.307Z,25.61
2016-12-09T08:49:20.878Z,25.72
2016-12-09T08:50:20.668Z,25.76
2016-12-09T08:51:20.944Z,25.73
2016-12-09T08:52:20.898Z,25.7
2016-12-09T08:53:20.645Z,25.58
2016-12-09T08:54:20.600Z,25.65
2016-12-09T08:55:21.822Z,25.61
2016-12-09T08:56:20.349Z,25.69
2016-12-09T08:57:21.420Z,25.61
2016-12-09T08:58:20.627Z,25.69
2016-12-09T08:59:20.735Z,25.67
2016-12-09T09:00:20.954Z,25.7
2016-12-09T09:01:20.945Z,25.82
2016-12-09T09:02:20.702Z,25.8
2016-12-09T09:03:20.709Z,25.79
2016-12-09T09:04:20.667Z,25.69
2016-12-09T09:05:20.722Z,25.69
2016-12-09T09:06:21.895Z,25.67
2016-12-09T09:07:21.025Z,25.67
2016-12-09T09:08:21.644Z,25.73
2016-12-09T09:09:21.062Z,25.72
2016-12-09T09:10:20.704Z,25.69
2016-12-09T09:11:20.759Z,25.75
2016-12-09T09:12:20.719Z,25.82
2016-12-09T09:13:20.412Z,25.85
2016-12-09T09:14:20.738Z,25.9
2016-12-09T09:15:20.477Z,25.85
2016-12-09T09:16:20.431Z,25.77
2016-12-09T09:17:21.726Z,25.75
2016-12-09T09:18:20.446Z,25.76
2016-12-09T09:19:21.615Z,25.76
2016-12-09T09:20:20.510Z,25.72
2016-12-09T09:21:21.093Z,25.79
2016-12-09T09:22:20.835Z,25.82
2016-12-09T09:23:20.791Z,25.87
2016-12-09T09:24:21.113Z,25.79
2016-12-09T09:25:21.160Z,25.85
2016-12-09T09:26:20.504Z,25.76
2016-12-09T09:27:21.130Z,25.77
2016-12-09T09:28:20.515Z,25.82
2016-12-09T09:29:21.145Z,25.72
2016-12-09T09:30:22.108Z,25.88
2016-12-09T09:31:20.849Z,25.77
2016-12-09T09:32:21.165Z,25.75
2016-12-09T09:33:21.222Z,25.87
2016-12-09T09:34:20.918Z,25.85
2016-12-09T09:35:20.870Z,25.88
2016-12-09T09:36:20.929Z,25.87
2016-12-09T09:37:20.673Z,25.72
2016-12-09T09:38:20.948Z,25.85
2016-12-09T09:39:20.908Z,25.77
2016-12-09T09:40:21.271Z,25.82
2016-12-09T09:41:22.017Z,25.85
2016-12-09T09:42:20.918Z,25.85
2016-12-09T09:43:20.614Z,25.88
2016-12-09T09:44:20.672Z,25.76
2016-12-09T09:45:20.953Z,25.82
2016-12-09T09:46:20.951Z,25.72
2016-12-09T09:47:21.265Z,25.73
2016-12-09T09:48:21.272Z,25.76
2016-12-09T09:49:20.712Z,25.8
2016-12-09T09:50:21.022Z,25.79
2016-12-09T09:51:20.666Z,25.82
2016-12-09T09:52:22.450Z,25.76
2016-12-09T09:53:21.307Z,25.85
2016-12-09T09:54:21.314Z,25.8
2016-12-09T09:55:21.371Z,25.77
2016-12-09T09:56:21.329Z,25.79
2016-12-09T09:57:21.024Z,25.72
2016-12-09T09:58:21.327Z,25.82
2016-12-09T09:59:21.237Z,25.7
2016-12-09T10:00:21.092Z,25.65
2016-12-09T10:01:21.058Z,25.69
2016-12-09T10:02:21.055Z,25.67
2016-12-09T10:03:21.111Z,25.65
2016-12-09T10:04:21.171Z,25.73
2016-12-09T10:05:21.388Z,25.85
2016-12-09T10:06:21.151Z,25.94
2016-12-09T10:07:21.409Z,25.83
2016-12-09T10:08:21.098Z,25.72
2016-12-09T10:09:20.840Z,25.77
2016-12-09T10:10:21.316Z,25.69
2016-12-09T10:11:20.805Z,25.72
2016-12-09T10:12:21.011Z,25.79
2016-12-09T10:13:21.130Z,25.76
2016-12-09T10:14:21.135Z,25.77
2016-12-09T10:15:21.194Z,25.83
2016-12-09T10:16:20.840Z,25.87
2016-12-09T10:17:21.236Z,25.82
2016-12-09T10:18:21.264Z,25.77
2016-12-09T10:19:21.174Z,25.72
2016-12-09T10:20:21.225Z,25.76
2016-12-09T10:21:21.286Z,25.73
2016-12-09T10:22:21.504Z,25.67
2016-12-09T10:23:21.198Z,25.75
2016-12-09T10:24:21.251Z,25.83
2016-12-09T10:25:22.635Z,25.73
2016-12-09T10:26:20.905Z,25.85
2016-12-09T10:27:20.911Z,25.9
2016-12-09T10:28:21.545Z,25.92
2016-12-09T10:29:21.289Z,25.88
2016-12-09T10:30:21.247Z,25.76
2016-12-09T10:31:20.960Z,25.77
2016-12-09T10:32:21.559Z,25.8
2016-12-09T10:33:20.957Z,25.77
2016-12-09T10:34:21.009Z,25.8
2016-12-09T10:35:20.968Z,25.73
2016-12-09T10:36:21.313Z,25.75
2016-12-09T10:37:21.604Z,25.91
2016-12-09T10:38:21.300Z,26.01
2016-12-09T10:39:21.307Z,25.98
2016-12-09T10:40:21.312Z,25.91
2016-12-09T10:41:21.321Z,25.88
2016-12-09T10:42:21.708Z,25.76
2016-12-09T10:43:21.635Z,25.8
2016-12-09T10:44:21.651Z,25.75
2016-12-09T10:45:21.238Z,25.76
2016-12-09T10:46:21.353Z,25.72
2016-12-09T10:47:21.728Z,25.77
2016-12-09T10:48:21.369Z,25.77
2016-12-09T10:49:21.060Z,25.76
2016-12-09T10:50:21.123Z,25.77
2016-12-09T10:51:21.437Z,25.7
2016-12-09T10:52:21.718Z,25.72
2016-12-09T10:53:21.502Z,25.73
2016-12-09T10:54:21.543Z,25.8
2016-12-09T10:55:21.727Z,25.82
2016-12-09T10:56:21.474Z,25.82
2016-12-09T10:57:21.190Z,25.7
2016-12-09T10:58:21.441Z,25.64
2016-12-09T10:59:21.491Z,25.69
2016-12-09T11:00:21.465Z,25.72
2016-12-09T11:01:21.766Z,25.76
2016-12-09T11:02:21.148Z,25.79
2016-12-09T11:03:21.517Z,25.79
2016-12-09T11:04:21.214Z,25.76
2016-12-09T11:05:21.855Z,25.77
2016-12-09T11:06:21.900Z,25.75
2016-12-09T11:07:21.557Z,25.82
2016-12-09T11:08:21.632Z,25.87
2016-12-09T11:09:21.510Z,25.82
2016-12-09T11:10:21.227Z,25.83
2016-12-09T11:11:21.268Z,25.85
2016-12-09T11:12:21.577Z,25.91
2016-12-09T11:13:21.586Z,25.87
2016-12-09T11:14:21.859Z,25.77
2016-12-09T11:15:21.602Z,25.73
2016-12-09T11:16:22.174Z,25.82
2016-12-09T11:17:21.623Z,25.91
2016-12-09T11:18:21.569Z,25.91
2016-12-09T11:19:21.887Z,25.85
2016-12-09T11:20:21.634Z,25.87
2016-12-09T11:21:21.587Z,25.9
2016-12-09T11:22:21.281Z,25.91
2016-12-09T11:23:21.955Z,25.9
2016-12-09T11:24:21.363Z,25.91
2016-12-09T11:25:21.665Z,25.85
2016-12-09T11:26:21.938Z,25.91
2016-12-09T11:27:22.230Z,25.98
2016-12-09T11:28:21.686Z,26.09
2016-12-09T11:29:21.954Z,26.12
2016-12-09T11:30:21.649Z,26.13
2016-12-09T11:31:21.656Z,26.12
2016-12-09T11:32:21.978Z,26.09
2016-12-09T11:33:22.035Z,26.13
2016-12-09T11:34:22.041Z,26.1
2016-12-09T11:35:21.686Z,26.07
2016-12-09T11:36:21.691Z,26.17
2016-12-09T11:37:22.010Z,26.13
2016-12-09T11:38:22.318Z,26.25
2016-12-09T11:39:22.025Z,26.29
2016-12-09T11:40:22.080Z,26.36
2016-12-09T11:41:22.039Z,26.35
2016-12-09T11:42:21.732Z,26.39
2016-12-09T11:43:22.107Z,26.47
2016-12-09T11:44:21.803Z,26.54
2016-12-09T11:45:21.759Z,26.4
2016-12-09T11:46:21.810Z,26.44
2016-12-09T11:47:21.817Z,26.52
2016-12-09T11:48:21.467Z,26.45
2016-12-09T11:49:22.190Z,26.5
2016-12-09T11:50:22.103Z,26.55
2016-12-09T11:51:22.111Z,26.5
2016-12-09T11:52:22.117Z,26.48
2016-12-09T11:53:22.177Z,26.45
2016-12-09T11:54:22.183Z,26.4
2016-12-09T11:55:22.137Z,26.45
2016-12-09T11:56:22.148Z,26.51
2016-12-09T11:57:21.529Z,26.39
2016-12-09T11:58:21.902Z,26.47
2016-12-09T11:59:21.906Z,26.37
2016-12-09T12:00:22.723Z,26.3
2016-12-09T12:01:21.613Z,26.32
2016-12-09T12:02:22.130Z,26.43
2016-12-09T12:03:21.934Z,26.45
2016-12-09T12:04:21.894Z,26.48
2016-12-09T12:05:22.258Z,26.55
2016-12-09T12:06:22.216Z,26.55
2016-12-09T12:07:21.647Z,26.54
2016-12-09T12:08:21.917Z,26.47
2016-12-09T12:09:21.924Z,26.48
2016-12-09T12:10:22.246Z,26.52
2016-12-09T12:11:23.053Z,26.48
2016-12-09T12:12:22.049Z,26.43
2016-12-09T12:13:22.416Z,26.43
2016-12-09T12:14:21.959Z,26.28
2016-12-09T12:15:22.334Z,26.21
2016-12-09T12:16:21.691Z,26.29
2016-12-09T12:17:22.043Z,26.13
2016-12-09T12:18:21.989Z,26.15
2016-12-09T12:19:21.996Z,26.15
2016-12-09T12:20:22.052Z,26.09
2016-12-09T12:21:22.009Z,26.17
2016-12-09T12:22:21.703Z,26.12
2016-12-09T12:23:21.712Z,26.17
2016-12-09T12:24:22.721Z,25.99
2016-12-09T12:25:22.353Z,26.15
2016-12-09T12:26:22.046Z,25.99
2016-12-09T12:27:22.105Z,26.06
2016-12-09T12:28:22.058Z,26.05
2016-12-09T12:29:22.066Z,25.98
2016-12-09T12:30:22.078Z,26.12
2016-12-09T12:31:22.439Z,25.99
2016-12-09T12:32:22.137Z,26.05
2016-12-09T12:33:23.213Z,26.02
2016-12-09T12:34:22.412Z,25.9
2016-12-09T12:35:23.144Z,25.99
2016-12-09T12:36:21.852Z,25.97
2016-12-09T12:37:22.515Z,25.91
2016-12-09T12:38:21.867Z,25.91
2016-12-09T12:39:22.446Z,25.88
2016-12-09T12:40:22.144Z,25.82
2016-12-09T12:41:22.199Z,25.88
2016-12-09T12:42:22.158Z,25.91
2016-12-09T12:43:22.527Z,25.73
2016-12-09T12:44:22.222Z,25.83
2016-12-09T12:45:21.865Z,25.82
2016-12-09T12:46:23.433Z,25.75
2016-12-09T12:47:21.880Z,25.88
2016-12-09T12:48:22.249Z,25.79
2016-12-09T12:49:22.519Z,25.76
2016-12-09T12:50:21.901Z,25.82
2016-12-09T12:51:22.579Z,25.77
2016-12-09T12:52:22.541Z,25.75
2016-12-09T12:53:22.280Z,25.8
2016-12-09T12:54:22.323Z,25.88
2016-12-09T12:55:22.248Z,25.79